createdAt,value
2023-02-06T00:01:33.730Z,6.40
2023-02-06T00:04:00.455Z,6.45
2023-02-06T00:06:30.240Z,8.35
2023-02-06T00:08:58.842Z,10.80
2023-02-06T00:11:25.994Z,8.35
2023-02-06T00:13:53.589Z,7.88
2023-02-06T00:16:29.328Z,6.93
2023-02-06T00:19:00.010Z,6.72
2023-02-06T00:21:28.565Z,7.93
2023-02-06T00:23:57.831Z,16.77
2023-02-06T00:26:26.196Z,10.20
2023-02-06T00:28:53.032Z,12.07
2023-02-06T00:31:19.961Z,16.20
2023-02-06T00:33:47.429Z,10.85
2023-02-06T00:36:16.029Z,12.98
2023-02-06T00:38:42.807Z,11.38
2023-02-06T00:41:12.716Z,10.77
2023-02-06T00:43:40.916Z,12.98
2023-02-06T00:46:07.726Z,10.55
2023-02-06T00:48:34.566Z,10.32
2023-02-06T00:51:01.256Z,10.88
2023-02-06T00:53:32.224Z,10.93
2023-02-06T00:55:58.908Z,11.32
2023-02-06T00:58:25.681Z,11.32
2023-02-06T01:00:53.056Z,11.98
2023-02-06T01:03:19.710Z,11.98
2023-02-06T01:05:46.437Z,11.63
2023-02-06T01:08:13.155Z,13.45
2023-02-06T01:10:41.962Z,12.27
2023-02-06T01:13:12.096Z,12.10
2023-02-06T01:15:42.241Z,11.07
2023-02-06T01:18:09.029Z,11.07
2023-02-06T01:20:36.090Z,12.27
2023-02-06T01:23:05.846Z,11.30
2023-02-06T01:25:34.095Z,10.52
2023-02-06T01:28:01.073Z,11.35
2023-02-06T01:30:27.910Z,12.32
2023-02-06T01:32:56.288Z,11.85
2023-02-06T01:35:23.093Z,11.98
2023-02-06T01:37:55.591Z,11.70
2023-02-06T01:40:22.459Z,9.95
2023-02-06T01:42:51.619Z,10.40
2023-02-06T01:45:35.313Z,10.68
2023-02-06T01:48:10.084Z,10.05
2023-02-06T01:50:48.450Z,8.63
2023-02-06T01:53:24.569Z,8.95
2023-02-06T01:55:54.376Z,9.75
2023-02-06T01:58:34.112Z,8.82
2023-02-06T02:01:03.508Z,9.68
2023-02-06T02:03:33.908Z,9.73
2023-02-06T02:06:08.401Z,10.75
2023-02-06T02:08:41.653Z,9.82
2023-02-06T02:11:11.733Z,8.95
2023-02-06T02:13:39.256Z,12.38
2023-02-06T02:16:28.379Z,9.80
2023-02-06T02:19:05.144Z,9.00
2023-02-06T02:22:08.790Z,9.40
2023-02-06T02:24:41.592Z,8.05
2023-02-06T02:27:25.940Z,9.13
2023-02-06T02:30:31.719Z,8.43
2023-02-06T02:33:26.417Z,9.48
2023-02-06T02:36:16.245Z,10.55
2023-02-06T02:38:54.578Z,9.30
2023-02-06T02:41:35.642Z,11.82
2023-02-06T02:44:21.380Z,11.00
2023-02-06T02:46:55.006Z,9.68
2023-02-06T02:49:27.475Z,10.60
2023-02-06T02:51:55.232Z,9.95
2023-02-06T02:54:21.984Z,11.25
2023-02-06T02:56:48.803Z,11.27
2023-02-06T02:59:28.900Z,12.52
2023-02-06T03:02:04.549Z,12.00
2023-02-06T03:04:42.229Z,10.77
2023-02-06T03:07:32.212Z,10.02
2023-02-06T03:10:18.659Z,9.27
2023-02-06T03:13:06.317Z,10.73
2023-02-06T03:15:49.064Z,10.35
2023-02-06T03:18:25.464Z,10.95
2023-02-06T03:20:55.561Z,10.15
2023-02-06T03:23:29.130Z,16.05
2023-02-06T03:26:00.647Z,9.27
2023-02-06T03:28:33.621Z,9.40
2023-02-06T03:31:03.852Z,9.65
2023-02-06T03:33:39.890Z,15.98
2023-02-06T03:36:08.488Z,10.80
2023-02-06T03:38:35.307Z,14.02
2023-02-06T03:41:05.955Z,10.23
2023-02-06T03:43:32.864Z,11.18
2023-02-06T03:46:04.940Z,9.57
2023-02-06T03:48:42.045Z,8.93
2023-02-06T03:51:15.905Z,12.23
2023-02-06T03:53:44.896Z,9.10
2023-02-06T03:56:21.116Z,8.02
2023-02-06T03:58:47.820Z,8.52
2023-02-06T04:01:17.393Z,7.95
2023-02-06T04:03:44.204Z,9.10
2023-02-06T04:06:11.057Z,8.02
2023-02-06T04:08:40.210Z,8.68
2023-02-06T04:11:09.250Z,8.07
2023-02-06T04:13:35.894Z,8.23
2023-02-06T04:16:04.729Z,9.48
2023-02-06T04:18:31.497Z,8.77
2023-02-06T04:21:06.797Z,10.77
2023-02-06T04:23:34.635Z,9.65
2023-02-06T04:26:01.359Z,10.65
2023-02-06T04:28:35.639Z,10.00
2023-02-06T04:31:03.644Z,10.95
2023-02-06T04:33:30.356Z,8.60
2023-02-06T04:35:57.006Z,8.40
2023-02-06T04:38:23.635Z,7.90
2023-02-06T04:40:50.677Z,8.07
2023-02-06T04:43:17.424Z,7.75
2023-02-06T04:45:44.258Z,7.50
2023-02-06T04:48:12.336Z,7.32
2023-02-06T04:50:42.005Z,8.23
2023-02-06T04:53:08.616Z,7.70
2023-02-06T04:55:36.212Z,7.75
2023-02-06T04:58:03.831Z,6.85
2023-02-06T05:00:30.737Z,6.50
2023-02-06T05:02:57.538Z,6.68
2023-02-06T05:05:25.620Z,5.95
2023-02-06T05:07:52.351Z,5.60
2023-02-06T05:10:24.890Z,6.85
2023-02-06T05:12:52.021Z,6.25
2023-02-06T05:15:21.794Z,6.15
2023-02-06T05:17:48.475Z,5.97
2023-02-06T05:20:16.366Z,5.97
2023-02-06T05:22:43.240Z,5.68
2023-02-06T05:25:10.047Z,5.85
2023-02-06T05:27:36.779Z,5.00
2023-02-06T05:30:06.303Z,5.43
2023-02-06T05:32:33.049Z,5.38
2023-02-06T05:35:02.373Z,5.70
2023-02-06T05:37:29.317Z,5.30
2023-02-06T05:39:59.990Z,5.50
2023-02-06T05:42:29.932Z,6.00
2023-02-06T05:44:56.639Z,6.00
2023-02-06T05:47:28.861Z,5.97
2023-02-06T05:49:55.670Z,5.68
2023-02-06T05:52:22.272Z,8.18
2023-02-06T05:54:52.404Z,5.13
2023-02-06T05:57:19.153Z,6.03
2023-02-06T05:59:46.506Z,6.28
2023-02-06T06:02:13.373Z,7.97
2023-02-06T06:04:40.027Z,7.43
2023-02-06T06:07:06.728Z,7.22
2023-02-06T06:09:33.396Z,7.80
2023-02-06T06:12:00.036Z,12.20
2023-02-06T06:14:26.680Z,11.13
2023-02-06T06:16:53.339Z,7.93
2023-02-06T06:19:19.995Z,6.72
2023-02-06T06:21:46.781Z,6.75
2023-02-06T06:24:13.701Z,6.05
2023-02-06T06:26:40.492Z,7.97
2023-02-06T06:29:07.108Z,12.43
2023-02-06T06:31:33.802Z,11.68
2023-02-06T06:34:00.583Z,13.27
2023-02-06T06:36:29.776Z,12.15
2023-02-06T06:38:56.367Z,11.65
2023-02-06T06:41:24.756Z,11.48
2023-02-06T06:43:51.722Z,10.90
2023-02-06T06:46:18.991Z,11.63
2023-02-06T06:48:45.554Z,11.00
2023-02-06T06:51:12.242Z,11.43
2023-02-06T06:53:42.027Z,13.48
2023-02-06T06:56:11.767Z,11.98
2023-02-06T06:58:42.559Z,13.02
2023-02-06T07:01:09.768Z,11.70
2023-02-06T07:03:36.824Z,11.45
2023-02-06T07:06:04.666Z,11.05
2023-02-06T07:08:31.272Z,11.23
2023-02-06T07:10:58.213Z,12.90
2023-02-06T07:13:28.051Z,12.52
2023-02-06T07:15:54.703Z,13.13
2023-02-06T07:18:21.795Z,10.60
2023-02-06T07:20:48.449Z,9.68
2023-02-06T07:23:15.299Z,9.82
2023-02-06T07:25:41.961Z,10.57
2023-02-06T07:28:09.107Z,10.77
2023-02-06T07:30:38.713Z,11.10
2023-02-06T07:33:05.952Z,12.13
2023-02-06T07:35:32.960Z,11.00
2023-02-06T07:37:59.611Z,9.65
2023-02-06T07:40:27.685Z,10.68
2023-02-06T07:42:58.001Z,9.90
2023-02-06T07:45:30.088Z,9.68
2023-02-06T07:47:56.670Z,10.73
2023-02-06T07:50:23.302Z,9.45
2023-02-06T07:52:49.992Z,10.88
2023-02-06T07:55:16.592Z,11.10
2023-02-06T07:57:43.253Z,9.95
2023-02-06T08:00:10.374Z,10.60
2023-02-06T08:02:40.283Z,10.00
2023-02-06T08:05:07.718Z,10.13
2023-02-06T08:07:34.429Z,12.05
2023-02-06T08:10:01.298Z,13.82
2023-02-06T08:12:30.111Z,13.80
2023-02-06T08:14:56.727Z,12.07
2023-02-06T08:17:23.417Z,13.38
2023-02-06T08:19:50.071Z,12.73
2023-02-06T08:22:16.783Z,12.05
2023-02-06T08:24:43.436Z,12.82
2023-02-06T08:27:10.030Z,11.77
2023-02-06T08:29:42.282Z,17.20
2023-02-06T08:32:10.238Z,12.18
2023-02-06T08:34:38.738Z,13.13
2023-02-06T08:37:05.544Z,9.50
2023-02-06T08:39:32.189Z,7.95
2023-02-06T08:41:58.884Z,9.25
2023-02-06T08:44:25.642Z,11.35
2023-02-06T08:47:01.541Z,7.55
2023-02-06T08:49:36.308Z,7.95
2023-02-06T08:52:03.181Z,7.43
2023-02-06T08:54:30.056Z,7.53
2023-02-06T08:56:58.400Z,8.30
2023-02-06T08:59:25.218Z,10.85
2023-02-06T09:01:52.220Z,8.43
2023-02-06T09:04:19.499Z,9.48
2023-02-06T09:06:51.966Z,8.82
2023-02-06T09:09:18.880Z,11.05
2023-02-06T09:11:45.488Z,8.88
2023-02-06T09:14:16.026Z,7.53
2023-02-06T09:16:42.828Z,8.65
2023-02-06T09:19:10.773Z,7.32
2023-02-06T09:21:37.688Z,12.63
2023-02-06T09:24:06.856Z,8.10
2023-02-06T09:26:40.590Z,9.23
2023-02-06T09:29:12.772Z,9.20
2023-02-06T09:31:42.440Z,9.85
2023-02-06T09:34:12.085Z,16.23
2023-02-06T09:36:39.506Z,11.13
2023-02-06T09:39:08.089Z,8.40
2023-02-06T09:41:41.050Z,8.63
2023-02-06T09:44:10.459Z,8.73
2023-02-06T09:47:01.625Z,8.30
2023-02-06T09:49:35.788Z,8.65
2023-02-06T09:52:23.425Z,8.32
2023-02-06T09:54:56.753Z,9.30
2023-02-06T09:58:20.502Z,8.93
2023-02-06T10:01:00.449Z,9.30
2023-02-06T10:03:42.477Z,8.73
2023-02-06T10:06:14.561Z,8.55
2023-02-06T10:09:05.935Z,8.75
2023-02-06T10:11:38.125Z,10.10
2023-02-06T10:14:22.347Z,8.70
2023-02-06T10:16:58.093Z,8.13
2023-02-06T10:19:44.001Z,8.30
2023-02-06T10:22:35.360Z,10.60
2023-02-06T10:25:17.011Z,8.07
2023-02-06T10:27:45.788Z,11.10
2023-02-06T10:30:33.121Z,11.05
2023-02-06T10:33:23.937Z,9.20
2023-02-06T10:35:57.286Z,11.70
2023-02-06T10:39:07.855Z,8.60
2023-02-06T10:41:59.428Z,9.40
2023-02-06T10:44:36.464Z,9.48
2023-02-06T10:47:13.482Z,10.25
2023-02-06T10:49:47.698Z,8.80
2023-02-06T10:52:30.849Z,8.95
2023-02-06T10:55:01.459Z,8.65
2023-02-06T10:57:28.814Z,9.30
2023-02-06T11:00:00.132Z,8.57
2023-02-06T11:02:55.309Z,10.20
2023-02-06T11:05:30.646Z,9.32
2023-02-06T11:08:08.270Z,10.20
2023-02-06T11:10:35.674Z,8.00
2023-02-06T11:13:14.002Z,8.45
2023-02-06T11:15:49.868Z,8.65
2023-02-06T11:18:21.714Z,8.80
2023-02-06T11:20:50.700Z,10.18
2023-02-06T11:23:26.249Z,9.73
2023-02-06T11:25:58.438Z,10.77
2023-02-06T11:28:25.933Z,10.18
2023-02-06T11:31:01.334Z,11.43
2023-02-06T11:33:51.264Z,13.00
2023-02-06T11:36:27.054Z,10.45
2023-02-06T11:38:58.092Z,10.93
2023-02-06T11:41:25.300Z,11.77
2023-02-06T11:43:56.256Z,12.57
2023-02-06T11:46:28.883Z,11.52
2023-02-06T11:48:55.540Z,11.80
2023-02-06T11:51:23.527Z,11.30
2023-02-06T11:54:04.172Z,12.57
2023-02-06T11:56:31.821Z,10.23
2023-02-06T11:59:19.428Z,11.40
2023-02-06T12:01:47.841Z,10.93
2023-02-06T12:04:25.554Z,11.38
2023-02-06T12:06:59.263Z,12.25
2023-02-06T12:09:26.287Z,10.07
2023-02-06T12:12:02.697Z,10.93
2023-02-06T12:14:38.807Z,12.63
2023-02-06T12:17:20.456Z,11.50
2023-02-06T12:19:57.227Z,13.70
2023-02-06T12:22:25.392Z,12.38
2023-02-06T12:24:55.121Z,10.57
2023-02-06T12:27:29.960Z,10.73
2023-02-06T12:30:29.480Z,10.82
2023-02-06T12:33:15.620Z,11.32
2023-02-06T12:35:53.705Z,10.85
2023-02-06T12:38:31.745Z,11.05
2023-02-06T12:41:36.886Z,9.63
2023-02-06T12:44:22.556Z,10.00
2023-02-06T12:46:57.204Z,9.82
2023-02-06T12:49:37.557Z,10.63
2023-02-06T12:52:15.104Z,12.63
2023-02-06T12:54:53.729Z,10.48
2023-02-06T12:57:24.357Z,10.82
2023-02-06T13:00:21.425Z,10.63
2023-02-06T13:03:19.012Z,10.00
2023-02-06T13:05:49.429Z,10.70
2023-02-06T13:08:27.910Z,10.45
2023-02-06T13:11:08.003Z,10.40
2023-02-06T13:13:34.651Z,10.13
2023-02-06T13:16:02.167Z,11.43
2023-02-06T13:18:41.213Z,10.15
2023-02-06T13:21:28.739Z,10.88
2023-02-06T13:24:01.495Z,12.10
2023-02-06T13:26:47.917Z,12.80
2023-02-06T13:29:26.295Z,13.02
2023-02-06T13:32:17.464Z,11.20
2023-02-06T13:34:44.209Z,11.52
2023-02-06T13:37:34.844Z,12.50
2023-02-06T13:40:35.390Z,11.43
2023-02-06T13:43:26.191Z,15.43
2023-02-06T13:46:00.542Z,12.90
2023-02-06T13:48:57.661Z,12.70
2023-02-06T13:51:24.278Z,12.35
2023-02-06T13:54:12.296Z,12.73
2023-02-06T13:56:38.842Z,12.27
2023-02-06T13:59:15.515Z,11.83
2023-02-06T14:01:43.060Z,12.20
2023-02-06T14:04:18.270Z,14.25
2023-02-06T14:07:07.228Z,13.38
2023-02-06T14:10:10.797Z,12.07
2023-02-06T14:12:46.512Z,11.50
2023-02-06T14:15:19.345Z,11.70
2023-02-06T14:18:26.978Z,11.95
2023-02-06T14:21:09.671Z,11.73
2023-02-06T14:23:56.654Z,12.80
2023-02-06T14:26:53.538Z,11.27
2023-02-06T14:29:34.100Z,14.35
2023-02-06T14:32:03.459Z,11.18
2023-02-06T14:34:42.401Z,11.40
2023-02-06T14:37:35.792Z,10.45
2023-02-06T14:40:05.794Z,10.67
2023-02-06T14:42:35.928Z,15.68
2023-02-06T14:45:42.441Z,11.55
2023-02-06T14:48:27.798Z,17.15
2023-02-06T14:50:57.220Z,11.23
2023-02-06T14:53:30.118Z,9.83
2023-02-06T14:56:21.492Z,9.00
2023-02-06T14:58:51.560Z,10.55
2023-02-06T15:01:18.249Z,13.23
2023-02-06T15:03:46.678Z,11.00
2023-02-06T15:06:35.119Z,12.50
2023-02-06T15:09:02.051Z,11.35
2023-02-06T15:11:32.708Z,11.02
2023-02-06T15:14:21.986Z,9.70
2023-02-06T15:16:50.386Z,8.23
2023-02-06T15:19:20.737Z,10.10
2023-02-06T15:21:49.099Z,8.80
2023-02-06T15:24:40.047Z,10.48
2023-02-06T15:27:15.673Z,9.57
2023-02-06T15:29:49.085Z,9.35
2023-02-06T15:32:40.603Z,6.80
2023-02-06T15:35:22.623Z,6.57
2023-02-06T15:37:51.101Z,7.43
2023-02-06T15:40:52.205Z,6.57
2023-02-06T15:43:25.789Z,7.10
2023-02-06T15:45:56.862Z,8.20
2023-02-06T15:48:31.704Z,8.55
2023-02-06T15:51:15.557Z,7.55
2023-02-06T15:53:48.380Z,7.38
2023-02-06T15:56:29.591Z,7.22
2023-02-06T15:59:03.662Z,7.27
2023-02-06T16:01:40.053Z,8.77
2023-02-06T16:04:23.663Z,10.05
2023-02-06T16:07:25.769Z,9.68
2023-02-06T16:09:59.302Z,12.82
2023-02-06T16:12:26.242Z,12.43
2023-02-06T16:15:01.714Z,12.32
2023-02-06T16:17:35.845Z,13.85
2023-02-06T16:20:23.975Z,14.07
2023-02-06T16:22:51.441Z,14.73
2023-02-06T16:25:38.817Z,11.83
2023-02-06T16:28:20.592Z,11.07
2023-02-06T16:30:54.545Z,12.98
2023-02-06T16:33:40.770Z,12.32
2023-02-06T16:36:09.349Z,12.70
2023-02-06T16:38:35.891Z,11.23
2023-02-06T16:41:02.550Z,11.13
2023-02-06T16:43:30.654Z,16.70
2023-02-06T16:46:00.382Z,14.45
2023-02-06T16:48:27.120Z,13.65
2023-02-06T16:50:53.769Z,13.17
2023-02-06T16:53:24.373Z,13.10
2023-02-06T16:55:51.505Z,12.50
2023-02-06T16:58:21.803Z,12.40
2023-02-06T17:00:48.837Z,11.95
2023-02-06T17:03:17.640Z,11.97
2023-02-06T17:05:46.415Z,9.82
2023-02-06T17:08:21.777Z,11.32
2023-02-06T17:10:49.176Z,11.00
2023-02-06T17:13:23.672Z,17.85
2023-02-06T17:15:54.356Z,11.30
2023-02-06T17:18:22.261Z,10.40
2023-02-06T17:20:52.703Z,12.45
2023-02-06T17:23:20.308Z,15.70
2023-02-06T17:25:47.015Z,12.93
2023-02-06T17:28:18.174Z,13.23
2023-02-06T17:30:45.870Z,10.23
2023-02-06T17:33:12.653Z,11.30
2023-02-06T17:35:39.342Z,11.98
2023-02-06T17:38:07.996Z,11.98
2023-02-06T17:40:36.768Z,11.53
2023-02-06T17:43:04.753Z,11.40
2023-02-06T17:45:32.109Z,10.23
2023-02-06T17:47:58.824Z,9.80
2023-02-06T17:50:27.596Z,9.88
2023-02-06T17:52:55.745Z,11.77
2023-02-06T17:55:23.926Z,13.85
2023-02-06T17:57:51.186Z,14.10
2023-02-06T18:00:19.920Z,15.75
2023-02-06T18:02:46.675Z,11.05
2023-02-06T18:05:21.988Z,11.57
2023-02-06T18:07:50.658Z,12.30
2023-02-06T18:10:19.526Z,24.92
2023-02-06T18:12:46.449Z,15.00
2023-02-06T18:15:14.011Z,12.45
2023-02-06T18:17:41.669Z,11.27
2023-02-06T18:20:09.945Z,16.05
2023-02-06T18:22:41.221Z,12.93
2023-02-06T18:25:14.475Z,12.73
2023-02-06T18:27:46.075Z,10.25
2023-02-06T18:30:15.197Z,14.80
2023-02-06T18:32:42.137Z,17.13
2023-02-06T18:35:11.017Z,13.43
2023-02-06T18:37:37.701Z,13.27
2023-02-06T18:40:05.202Z,18.33
2023-02-06T18:42:50.806Z,13.90
2023-02-06T18:45:18.866Z,16.70
2023-02-06T18:47:45.576Z,16.48
2023-02-06T18:50:13.025Z,17.70
2023-02-06T18:52:39.913Z,18.92
2023-02-06T18:55:09.700Z,19.30
2023-02-06T18:57:36.737Z,14.68
2023-02-06T19:00:06.174Z,15.40
2023-02-06T19:02:33.063Z,18.23
2023-02-06T19:04:59.872Z,14.60
2023-02-06T19:07:28.817Z,14.00
2023-02-06T19:10:00.435Z,13.82
2023-02-06T19:12:29.009Z,15.02
2023-02-06T19:14:57.190Z,14.75
2023-02-06T19:17:25.140Z,12.70
2023-02-06T19:19:51.981Z,18.17
2023-02-06T19:22:19.119Z,17.52
2023-02-06T19:24:45.802Z,13.90
2023-02-06T19:27:13.111Z,13.75
2023-02-06T19:29:39.863Z,13.85
2023-02-06T19:32:08.219Z,14.30
2023-02-06T19:34:37.851Z,14.23
2023-02-06T19:37:05.508Z,14.27
2023-02-06T19:39:34.393Z,11.35
2023-02-06T19:42:06.400Z,11.32
2023-02-06T19:44:34.089Z,10.87
2023-02-06T19:47:01.792Z,11.35
2023-02-06T19:49:29.038Z,11.65
2023-02-06T19:51:59.908Z,8.75
2023-02-06T19:54:27.228Z,9.45
2023-02-06T19:56:54.222Z,8.43
2023-02-06T19:59:26.138Z,10.13
2023-02-06T20:02:00.021Z,8.63
2023-02-06T20:04:32.483Z,8.40
2023-02-06T20:06:59.220Z,7.78
2023-02-06T20:09:28.250Z,8.13
2023-02-06T20:11:55.680Z,8.70
2023-02-06T20:14:23.636Z,8.75
2023-02-06T20:16:54.086Z,9.27
2023-02-06T20:19:24.683Z,9.18
2023-02-06T20:21:55.968Z,7.93
2023-02-06T20:24:26.631Z,11.32
2023-02-06T20:29:53.118Z,13.07
2023-02-06T20:32:19.889Z,11.77
2023-02-06T20:34:47.489Z,9.43
2023-02-06T20:37:14.238Z,9.20
2023-02-06T20:39:40.885Z,10.15
2023-02-06T20:42:07.549Z,8.68
2023-02-06T20:44:34.305Z,8.75
2023-02-06T20:47:01.289Z,8.13
2023-02-06T20:49:28.885Z,8.50
2023-02-06T20:51:55.580Z,9.27
2023-02-06T20:54:23.798Z,9.32
2023-02-06T20:56:50.953Z,11.90
2023-02-06T20:59:20.834Z,11.83
2023-02-06T21:01:47.952Z,11.55
2023-02-06T21:04:16.399Z,13.88
2023-02-06T21:06:44.030Z,11.93
2023-02-06T21:09:11.759Z,9.40
2023-02-06T21:11:44.683Z,10.27
2023-02-06T21:14:12.097Z,12.48
2023-02-06T21:16:39.122Z,13.68
2023-02-06T21:19:07.936Z,11.70
2023-02-06T21:21:37.775Z,12.38
2023-02-06T21:24:05.485Z,12.13
2023-02-06T21:26:32.752Z,12.20
2023-02-06T21:29:00.441Z,13.48
2023-02-06T21:31:36.045Z,12.45
2023-02-06T21:34:11.914Z,10.20
2023-02-06T21:36:39.604Z,12.20
2023-02-06T21:39:06.875Z,11.90
2023-02-06T21:41:33.824Z,8.95
2023-02-06T21:44:00.705Z,7.53
2023-02-06T21:46:30.893Z,9.13
2023-02-06T21:48:58.556Z,10.00
2023-02-06T21:51:25.692Z,10.80
2023-02-06T21:53:52.672Z,11.07
2023-02-06T21:56:25.718Z,13.57
2023-02-06T21:58:52.989Z,9.18
2023-02-06T22:01:25.999Z,12.40
2023-02-06T22:03:53.457Z,7.50
2023-02-06T22:06:20.369Z,9.10
2023-02-06T22:08:51.761Z,8.35
2023-02-06T22:11:18.369Z,10.15
2023-02-06T22:13:45.656Z,9.73
2023-02-06T22:16:14.370Z,7.18
2023-02-06T22:18:41.822Z,10.70
2023-02-06T22:21:14.337Z,7.88
2023-02-06T22:23:42.586Z,8.02
2023-02-06T22:26:11.791Z,12.23
2023-02-06T22:28:41.461Z,10.05
2023-02-06T22:31:11.830Z,7.28
2023-02-06T22:33:39.210Z,7.75
2023-02-06T22:36:11.810Z,7.82
2023-02-06T22:38:39.632Z,7.63
2023-02-06T22:41:12.140Z,9.75
2023-02-06T22:43:39.666Z,10.25
2023-02-06T22:46:07.871Z,8.50
2023-02-06T22:48:35.616Z,8.55
2023-02-06T22:51:09.516Z,8.53
2023-02-06T22:53:40.278Z,6.97
2023-02-06T22:56:29.526Z,6.40
2023-02-06T22:59:03.369Z,9.60
2023-02-06T23:01:36.736Z,8.70
2023-02-06T23:04:05.230Z,8.30
2023-02-06T23:06:33.636Z,9.90
2023-02-06T23:09:02.005Z,6.55
2023-02-06T23:11:28.836Z,8.63
2023-02-06T23:13:57.328Z,8.25
2023-02-06T23:16:24.719Z,8.00
2023-02-06T23:18:51.828Z,6.78
2023-02-06T23:21:20.883Z,6.13
2023-02-06T23:23:47.526Z,6.22
2023-02-06T23:26:21.802Z,5.38
2023-02-06T23:28:48.798Z,6.63
2023-02-06T23:31:16.003Z,7.07
2023-02-06T23:33:42.844Z,7.90
2023-02-06T23:36:13.204Z,6.70
2023-02-06T23:38:41.117Z,6.07
2023-02-06T23:41:11.197Z,6.80
2023-02-06T23:43:38.743Z,5.75
2023-02-06T23:46:06.921Z,7.65
2023-02-06T23:48:34.101Z,7.63
2023-02-06T23:51:00.909Z,6.70
2023-02-06T23:53:27.856Z,6.57
2023-02-06T23:55:54.810Z,5.85
2023-02-06T23:58:21.739Z,5.30
